Terminal Aerodrome Forecast
Issued by NWS

Home | Current Version | Previous Version | Graphics & Text | Print | Product List | Glossary On
Versions: 1 2 3 4 5 6 7 8 9 10 11 12 13 14 15 16
000
FTUS43 KTOP 181100
TAFFOE
TAF
KFOE 181122Z 1812/1912 11004KT P6SM BKN200
     FM181230 15008KT P6SM -RA VCTS SCT023 BKN070CB
     FM182000 15010KT P6SM VCTS BKN050CB
     FM190900 12002KT 4SM -TSRA BKN040CB=

USA.gov is the U.S. government's official web portal to all federal, state and local government web resources and services.